Terminal Aerodrome Forecast
Issued by NWS Charleston, WV

Current Version | Previous Version | Text Only | Print | Product List | Glossary Off
Versions: 1 2 3 4 5 6 7 8 9 10 11 12 13 14 15 16 17 18 19 20 21 22 23 24

103
FTUS41 KRLX 111551 AAB
TAFEKN
TAF AMD
KEKN 111551Z 1116/1212 28012G18KT 6SM -SHSN SCT015 BKN020
      TEMPO 1116/1119 3SM -SHSN BKN015
     FM111900 28012G19KT P6SM -SHSN BKN025
     FM112200 29008KT P6SM SCT030 BKN060
     FM120200 28003KT P6SM SCT070
     FM121000 00000KT P6SM BKN080=

USA.gov is the U.S. government's official web portal to all federal, state and local government web resources and services.